Aérodrome :
LOGIN :

S'inscrire | Disclaimer

   EN    FR    IT 

 










Légende :    VFR   VFR Marginal   IFR   IFR Intensif   IFR Très Intensif
Visi : 
Plafond : 
>= 8 km
>= 3000ft
5 à 8 km
1000 à 3000 ft
1500m à 5 km
500 à 1000 ft
800 à 1500m
200 à 500 ft
< 800m
< 200 ft
Symboles :   Orages  Brouillard  Fortes neiges  Fortes précipitations  Vent > 20 kt
SIGMETs :   Divers  Orages  Givrage  Turbulence  Onde Orograph.  Cendres Volcan.






- Altitude de l'aérodrome : 39 ft
- Code IATA : ANR


EBAW - Anvers / Antwerpen Deurne

DERNIER METAR :
  • 190450Z AUTO 23005KT CAVOK 05/02 Q1015

METARs EXPIRÉS :
  • 190420Z AUTO 25008KT CAVOK 05/02 Q1015
  • 190350Z AUTO 26012KT 9999 -SHRA FEW005/// SCT007/// BKN036/// 05/02 Q1014
  • 190320Z AUTO 26010KT CAVOK 05/02 Q1014
  • 190250Z AUTO 25008KT CAVOK 05/03 Q1014
  • 190220Z AUTO 24007KT 9999 // FEW034/// BKN048/// 05/02 Q1014

TAF TAF EBAW
Valide du 19 à 03h jusqu'au 19 à 12h UTC


190210Z 1903/1912 26008KT 9999 FEW020TCU
PROB30
TEMPO 1903/1912 4000 SHRA BKN012



MET'MAP, la Météo Aéronautique d'un coup d'oeil ! - Copyright ORBIFLY Décembre 2007 - Disclaimer

ORBIFLY MET'MAP TEAM :

Programmation & Développement : Alexandra Zaïnal
Conception & Développement : Baudouin d'Aumeries
Co-Programmation & Développement : Marc-Olivier Méhu
Soutien technique & logistique : Manuel Goepfert

Contact : metmap@orbifly.com




SOURCES & CREDITS :

   NOAA